DKBUL EDLV-EDLV
Flight info
| Callsign | DKBUL |
|---|---|
| Flight time | 0h 5m |
| Altitude | |
| Route | VFR |
| Aircraft | DR40 |
Departure
| Time | 2026-04-29 11:05 |
|---|---|
| Airport | Weeze (Niederrhein) Airport (EDLV) |
Arrival
| Time | 2026-04-29 11:10 |
|---|---|
| Airport | Weeze (Niederrhein) Airport (EDLV) |
| Time | Latitude | Longitude | Altitude | Speed | Heading |
|---|---|---|---|---|---|
| 2026-04-29 11:05 | 51.60234 | 6.14064 | 303 ft | 67 kts | 86° |
| 2026-04-29 11:05 | 51.60196 | 6.14783 | 592 ft | 62 kts | 84° |
| 2026-04-29 11:05 | 51.60191 | 6.15513 | 841 ft | 69 kts | 82° |
| 2026-04-29 11:06 | 51.60223 | 6.16252 | 1310 ft | 62 kts | 81° |
| 2026-04-29 11:06 | 51.60293 | 6.16962 | 1672 ft | 66 kts | 44° |
| 2026-04-29 11:06 | 51.60820 | 6.17000 | 1868 ft | 83 kts | 6° |
| 2026-04-29 11:06 | 51.61436 | 6.16935 | 2172 ft | 94 kts | 9° |
| 2026-04-29 11:07 | 51.62184 | 6.16844 | 2157 ft | 116 kts | 4° |
| 2026-04-29 11:07 | 51.62940 | 6.16327 | 2196 ft | 138 kts | 312° |
| 2026-04-29 11:07 | 51.63075 | 6.14689 | 2204 ft | 148 kts | 276° |
| 2026-04-29 11:07 | 51.63091 | 6.13015 | 2233 ft | 155 kts | 275° |
| 2026-04-29 11:08 | 51.63077 | 6.11269 | 2405 ft | 154 kts | 269° |
| 2026-04-29 11:08 | 51.63001 | 6.09492 | 2260 ft | 164 kts | 268° |
| 2026-04-29 11:08 | 51.62803 | 6.07746 | 2356 ft | 152 kts | 238° |
| 2026-04-29 11:08 | 51.61932 | 6.07051 | 2215 ft | 148 kts | 173° |
| 2026-04-29 11:09 | 51.60940 | 6.07195 | 2035 ft | 145 kts | 147° |
| 2026-04-29 11:09 | 51.60358 | 6.08217 | 1541 ft | 116 kts | 99° |
| 2026-04-29 11:09 | 51.60353 | 6.09332 | 1065 ft | 75 kts | 86° |
| 2026-04-29 11:09 | 51.60336 | 6.10114 | 757 ft | 72 kts | 88° |
| 2026-04-29 11:10 | 51.60316 | 6.10968 | 500 ft | 79 kts | 86° |
| 2026-04-29 11:10 | 51.60294 | 6.11856 | 249 ft | 81 kts | 84° |
| 2026-04-29 11:10 | 51.60281 | 6.12743 | 128 ft | 72 kts | 86° |
| 2026-04-29 11:10 | 51.60274 | 6.13298 | 110 ft | 38 kts | 87° |
| 2026-04-29 11:11 | 51.60258 | 6.13864 | 123 ft | 59 kts | 86° |
| 2026-04-29 11:11 | 51.60236 | 6.14592 | 118 ft | 64 kts | 84° |
| 2026-04-29 11:11 | 51.60200 | 6.15218 | 188 ft | 54 kts | 77° |
| 2026-04-29 11:11 | 51.60230 | 6.15664 | 229 ft | 61 kts | 81° |